Terminal Aerodrome Forecast
Issued by NWS

Home | Current Version | Previous Version | Text Only | Print | Product List | Glossary Off
Versions: 1 2 3 4 5 6 7 8 9 10 11 12 13 14 15 16 17 18 19 20 21

000
FTUS43 KCYS 221727
TAFCDR
TAF
KCDR 221727Z 2218/2318 20022G30KT P6SM SCT080 BKN150
     FM230000 18013KT P6SM SCT080 BKN150
     FM230900 15008KT P6SM FEW060 SCT120
     FM231500 VRB06KT P6SM FEW080 SCT150=

USA.gov is the U.S. government's official web portal to all federal, state and local government web resources and services.